createdAt,value
2022-11-16T00:02:14.132Z,4.00
2022-11-16T00:07:11.607Z,4.10
2022-11-16T00:12:11.304Z,4.20
2022-11-16T00:17:08.538Z,4.00
2022-11-16T00:22:06.090Z,4.10
2022-11-16T00:27:03.710Z,4.20
2022-11-16T00:32:00.905Z,4.20
2022-11-16T00:36:58.386Z,4.10
2022-11-16T00:41:55.727Z,4.00
2022-11-16T00:46:53.005Z,4.00
2022-11-16T00:51:50.347Z,4.00
2022-11-16T00:56:47.815Z,3.80
2022-11-16T01:01:45.101Z,3.80
2022-11-16T01:06:42.396Z,3.80
2022-11-16T01:11:58.000Z,3.80
2022-11-16T01:16:55.365Z,3.70
2022-11-16T01:21:52.869Z,3.80
2022-11-16T01:26:50.427Z,3.80
2022-11-16T01:31:49.111Z,3.80
2022-11-16T01:36:46.454Z,3.70
2022-11-16T01:41:45.273Z,3.70
2022-11-16T01:46:42.864Z,3.60
2022-11-16T01:51:44.424Z,3.60
2022-11-16T01:56:44.801Z,3.60
2022-11-16T02:01:42.291Z,3.60
2022-11-16T02:06:45.515Z,3.70
2022-11-16T02:11:50.612Z,3.80
2022-11-16T02:16:58.336Z,4.00
2022-11-16T02:22:27.256Z,4.10
2022-11-16T02:27:28.686Z,4.30
2022-11-16T02:32:34.466Z,4.30
2022-11-16T02:37:47.779Z,4.30
2022-11-16T02:42:51.656Z,4.40
2022-11-16T02:47:51.356Z,4.40
2022-11-16T02:52:49.004Z,4.30
2022-11-16T02:58:01.313Z,4.40
2022-11-16T03:02:58.399Z,4.50
2022-11-16T03:08:09.433Z,4.50
2022-11-16T03:13:11.873Z,4.60
2022-11-16T03:18:10.269Z,4.60
2022-11-16T03:23:11.515Z,4.50
2022-11-16T03:29:03.299Z,4.40
2022-11-16T03:34:10.673Z,4.50
2022-11-16T03:39:16.001Z,4.50
2022-11-16T03:44:16.231Z,4.50
2022-11-16T03:49:14.403Z,4.60
2022-11-16T03:54:11.830Z,4.60
2022-11-16T03:59:09.150Z,4.60
2022-11-16T04:04:36.323Z,4.70
2022-11-16T04:09:52.177Z,4.70
2022-11-16T04:15:07.963Z,4.70
2022-11-16T04:20:24.852Z,4.60
2022-11-16T04:25:27.255Z,4.70
2022-11-16T04:30:24.610Z,4.60
2022-11-16T04:35:48.201Z,4.70
2022-11-16T04:40:48.119Z,4.70
2022-11-16T04:46:09.846Z,4.70
2022-11-16T04:51:07.426Z,4.60
2022-11-16T04:56:04.977Z,4.60
2022-11-16T05:01:02.814Z,4.60
2022-11-16T05:06:00.807Z,4.60
2022-11-16T05:10:58.577Z,4.70
2022-11-16T05:15:56.332Z,4.80
2022-11-16T05:21:01.327Z,4.80
2022-11-16T05:25:58.833Z,4.90
2022-11-16T05:30:58.339Z,4.90
2022-11-16T05:35:56.958Z,5.00
2022-11-16T05:40:54.733Z,5.00
2022-11-16T05:45:51.993Z,5.00
2022-11-16T05:50:49.151Z,4.90
2022-11-16T05:55:46.962Z,4.80
2022-11-16T06:00:47.315Z,4.90
2022-11-16T06:05:44.415Z,5.00
2022-11-16T06:10:41.681Z,5.00
2022-11-16T06:15:39.771Z,5.00
2022-11-16T06:20:41.090Z,4.90
2022-11-16T06:25:39.703Z,5.10
2022-11-16T06:30:38.466Z,5.10
2022-11-16T06:35:36.018Z,5.20
2022-11-16T06:40:34.154Z,5.30
2022-11-16T06:45:31.920Z,5.30
2022-11-16T06:50:29.252Z,5.30
2022-11-16T06:55:28.324Z,5.30
2022-11-16T07:00:25.595Z,5.40
2022-11-16T07:05:22.830Z,5.50
2022-11-16T07:10:20.064Z,5.50
2022-11-16T07:15:17.803Z,5.70
2022-11-16T07:20:16.589Z,5.80
2022-11-16T07:25:13.940Z,5.90
2022-11-16T07:30:11.757Z,6.00
2022-11-16T07:35:09.160Z,6.00
2022-11-16T07:40:07.145Z,6.10
2022-11-16T07:45:04.657Z,6.10
2022-11-16T07:50:01.859Z,5.90
2022-11-16T07:54:59.437Z,5.80
2022-11-16T07:59:56.716Z,5.80
2022-11-16T08:04:54.104Z,6.00
2022-11-16T08:09:51.351Z,6.00
2022-11-16T08:14:49.331Z,6.10
2022-11-16T08:19:47.084Z,6.20
2022-11-16T08:24:44.732Z,6.30
2022-11-16T08:29:42.047Z,6.40
2022-11-16T08:34:39.277Z,6.60
2022-11-16T08:39:36.597Z,6.70
2022-11-16T08:44:33.973Z,6.80
2022-11-16T08:49:31.454Z,6.90
2022-11-16T08:54:29.936Z,7.00
2022-11-16T08:59:27.545Z,7.00
2022-11-16T09:04:25.105Z,7.00
2022-11-16T09:09:22.591Z,7.10
2022-11-16T09:14:20.340Z,7.00
2022-11-16T09:19:17.918Z,7.00
2022-11-16T09:24:15.288Z,7.10
2022-11-16T09:29:14.413Z,7.20
2022-11-16T09:34:11.680Z,7.30
2022-11-16T09:44:50.117Z,7.30
2022-11-16T09:50:03.615Z,7.40
2022-11-16T09:55:22.371Z,7.50
2022-11-16T10:00:23.798Z,7.50
2022-11-16T10:05:47.986Z,7.50
2022-11-16T10:11:01.580Z,7.60
2022-11-16T10:16:16.820Z,7.50
2022-11-16T10:21:18.700Z,7.50
2022-11-16T10:26:15.905Z,7.50
2022-11-16T10:31:19.077Z,7.60
2022-11-16T10:36:18.200Z,7.60
2022-11-16T10:41:40.317Z,7.70
2022-11-16T10:46:44.767Z,7.80
2022-11-16T10:51:43.310Z,7.70
2022-11-16T10:56:45.543Z,7.80
2022-11-16T11:01:57.678Z,7.70
2022-11-16T11:07:30.340Z,7.70
2022-11-16T11:12:40.251Z,7.80
2022-11-16T11:17:43.158Z,7.90
2022-11-16T11:22:52.287Z,8.00
2022-11-16T11:27:50.972Z,8.10
2022-11-16T11:32:49.149Z,8.20
2022-11-16T11:37:53.141Z,8.40
2022-11-16T11:43:02.580Z,8.50
2022-11-16T11:48:02.865Z,8.50
2022-11-16T11:53:34.134Z,8.50
2022-11-16T11:58:38.903Z,8.60
2022-11-16T12:04:10.243Z,8.40
2022-11-16T12:09:28.428Z,8.30
2022-11-16T12:14:59.553Z,8.50
2022-11-16T12:20:29.386Z,8.60
2022-11-16T12:25:38.403Z,8.60
2022-11-16T12:30:50.412Z,8.60
2022-11-16T12:35:53.707Z,8.70
2022-11-16T12:41:09.338Z,8.80
2022-11-16T12:46:27.127Z,8.70
2022-11-16T12:51:35.180Z,8.60
2022-11-16T12:56:58.858Z,8.60
2022-11-16T13:02:05.810Z,8.60
2022-11-16T13:07:19.360Z,8.60
2022-11-16T13:12:22.722Z,8.60
2022-11-16T13:17:22.009Z,8.70
2022-11-16T13:22:23.998Z,8.70
2022-11-16T13:27:42.135Z,8.60
2022-11-16T13:32:48.533Z,8.70
2022-11-16T13:37:48.563Z,8.80
2022-11-16T13:43:15.878Z,8.80
2022-11-16T13:48:20.997Z,8.80
2022-11-16T13:54:24.979Z,8.80
2022-11-16T13:58:51.798Z,8.70
2022-11-16T14:03:52.086Z,8.80
2022-11-16T14:09:00.453Z,8.80
2022-11-16T14:14:01.431Z,8.70
2022-11-16T14:19:01.381Z,8.70
2022-11-16T14:23:58.627Z,8.50
2022-11-16T14:29:03.518Z,8.50
2022-11-16T14:34:01.322Z,8.50
2022-11-16T14:39:17.050Z,8.50
2022-11-16T14:44:20.051Z,8.50
2022-11-16T14:49:20.575Z,8.40
2022-11-16T14:54:42.396Z,8.40
2022-11-16T14:59:39.898Z,8.40
2022-11-16T15:04:39.469Z,8.20
2022-11-16T15:09:44.194Z,8.20
2022-11-16T15:14:52.194Z,8.20
2022-11-16T15:20:14.682Z,8.20
2022-11-16T15:25:25.046Z,8.20
2022-11-16T15:30:25.590Z,8.20
2022-11-16T15:35:25.438Z,8.10
2022-11-16T15:40:22.797Z,8.10
2022-11-16T15:45:25.763Z,8.10
2022-11-16T15:50:24.058Z,8.10
2022-11-16T15:55:42.531Z,8.00
2022-11-16T16:00:40.351Z,8.00
2022-11-16T16:05:41.268Z,7.90
2022-11-16T16:10:38.756Z,7.80
2022-11-16T16:15:37.016Z,7.80
2022-11-16T16:20:35.094Z,7.80
2022-11-16T16:25:34.306Z,7.80
2022-11-16T16:30:33.909Z,7.80
2022-11-16T16:35:31.207Z,7.80
2022-11-16T16:40:29.573Z,7.90
2022-11-16T16:45:39.320Z,7.90
2022-11-16T16:50:36.914Z,7.80
2022-11-16T16:55:37.634Z,7.70
2022-11-16T17:00:35.130Z,7.70
2022-11-16T17:05:34.120Z,7.70
2022-11-16T17:10:31.504Z,7.70
2022-11-16T17:15:29.538Z,7.70
2022-11-16T17:20:27.067Z,7.60
2022-11-16T17:25:24.686Z,7.70
2022-11-16T17:30:22.084Z,7.70
2022-11-16T17:35:19.584Z,7.70
2022-11-16T17:40:16.930Z,7.70
2022-11-16T17:45:14.397Z,7.70
2022-11-16T17:50:12.088Z,7.60
2022-11-16T17:55:09.442Z,7.60
2022-11-16T18:00:07.723Z,7.50
2022-11-16T18:05:05.416Z,7.60
2022-11-16T18:10:02.747Z,7.50
2022-11-16T18:15:26.883Z,7.50
2022-11-16T18:20:17.381Z,7.50
2022-11-16T18:25:14.626Z,7.50
2022-11-16T18:30:13.356Z,7.60
2022-11-16T18:35:10.624Z,7.70
2022-11-16T18:40:09.392Z,7.80
2022-11-16T18:45:08.129Z,7.70
2022-11-16T18:50:18.099Z,7.70
2022-11-16T18:55:20.144Z,7.70
2022-11-16T19:00:19.685Z,7.80
2022-11-16T19:05:18.130Z,7.80
2022-11-16T19:10:16.319Z,7.90
2022-11-16T19:15:14.218Z,7.80
2022-11-16T19:20:12.839Z,7.80
2022-11-16T19:25:12.383Z,7.80
2022-11-16T19:30:10.478Z,7.80
2022-11-16T19:35:11.104Z,7.80
2022-11-16T19:40:09.104Z,7.80
2022-11-16T19:45:07.563Z,7.90
2022-11-16T19:50:07.027Z,8.00
2022-11-16T19:55:04.533Z,8.00
2022-11-16T20:00:02.054Z,8.00
2022-11-16T20:04:59.818Z,8.00
2022-11-16T20:09:57.010Z,8.00
2022-11-16T20:14:54.279Z,8.00
2022-11-16T20:19:52.298Z,7.90
2022-11-16T20:24:49.651Z,7.90
2022-11-16T20:29:46.989Z,7.90
2022-11-16T20:34:44.467Z,7.80
2022-11-16T20:39:42.460Z,7.90
2022-11-16T20:44:39.993Z,7.80
2022-11-16T20:49:37.511Z,8.00
2022-11-16T20:54:34.747Z,8.00
2022-11-16T20:59:32.127Z,8.00
2022-11-16T21:04:29.713Z,8.00
2022-11-16T21:09:28.155Z,8.00
2022-11-16T21:14:25.521Z,7.90
2022-11-16T21:19:23.126Z,7.90
2022-11-16T21:24:21.925Z,7.90
2022-11-16T21:29:22.420Z,7.80
2022-11-16T21:34:20.453Z,7.80
2022-11-16T21:39:17.881Z,7.90
2022-11-16T21:44:15.148Z,8.00
2022-11-16T21:49:13.115Z,8.10
2022-11-16T21:54:10.431Z,8.00
2022-11-16T21:59:07.740Z,8.00
2022-11-16T22:04:23.660Z,7.90
2022-11-16T22:09:22.029Z,7.90
2022-11-16T22:14:19.176Z,7.90
2022-11-16T22:19:16.463Z,7.90
2022-11-16T22:24:13.857Z,7.80
2022-11-16T22:29:11.605Z,7.90
2022-11-16T22:34:08.941Z,7.90
2022-11-16T22:39:06.262Z,7.90
2022-11-16T22:44:03.521Z,7.90
2022-11-16T22:49:00.948Z,7.90
2022-11-16T22:53:59.429Z,7.80
2022-11-16T22:58:57.719Z,7.80
2022-11-16T23:03:55.029Z,8.00
2022-11-16T23:08:52.401Z,7.90
2022-11-16T23:14:09.194Z,8.00
2022-11-16T23:19:27.435Z,8.00
2022-11-16T23:24:43.290Z,7.90
2022-11-16T23:29:41.630Z,7.90
2022-11-16T23:34:39.006Z,7.90
2022-11-16T23:39:36.626Z,7.90
2022-11-16T23:44:33.855Z,8.00
2022-11-16T23:49:31.091Z,8.00
2022-11-16T23:54:28.429Z,7.90
2022-11-16T23:59:25.855Z,7.80
